sensor_id;sensor_type;location;lat;lon;timestamp;pressure;altitude;pressure_sealevel;temperature;humidity
64453;BME280;50813;52.654;6.766;2023-04-09T00:00:40;102664.00000000001;;;9.56;96.76
64453;BME280;50813;52.654;6.766;2023-04-09T00:03:54;102663.00000000001;;;9.58;97.09
64453;BME280;50813;52.654;6.766;2023-04-09T00:05:31;102663.00000000001;;;9.65;96.83
64453;BME280;50813;52.654;6.766;2023-04-09T00:07:07;102664.00000000001;;;9.52;97.04
64453;BME280;50813;52.654;6.766;2023-04-09T00:10:19;102666.00000000001;;;9.56;98.41
64453;BME280;50813;52.654;6.766;2023-04-09T00:11:56;102666.00000000001;;;9.53;98.24
64453;BME280;50813;52.654;6.766;2023-04-09T00:13:33;102664.00000000001;;;9.58;97.39
64453;BME280;50813;52.654;6.766;2023-04-09T00:16:47;102667.0;;;9.48;97.67
64453;BME280;50813;52.654;6.766;2023-04-09T00:18:23;102668.0;;;9.27;97.81
64453;BME280;50813;52.654;6.766;2023-04-09T00:20:00;102672.0;;;9.07;99.29
64453;BME280;50813;52.654;6.766;2023-04-09T00:21:36;102667.0;;;9.43;98.15
64453;BME280;50813;52.654;6.766;2023-04-09T00:24:48;102666.00000000001;;;9.48;98.25
64453;BME280;50813;52.654;6.766;2023-04-09T00:26:25;102669.0;;;9.48;98.05
64453;BME280;50813;52.654;6.766;2023-04-09T00:28:01;102666.00000000001;;;9.48;97.75
64453;BME280;50813;52.654;6.766;2023-04-09T00:31:15;102665.00000000001;;;9.42;98.09
64453;BME280;50813;52.654;6.766;2023-04-09T00:32:51;102668.0;;;9.3;98.23
64453;BME280;50813;52.654;6.766;2023-04-09T00:34:27;102658.99999999999;;;9.58;97.39
64453;BME280;50813;52.654;6.766;2023-04-09T00:37:40;102661.99999999999;;;9.55;97.58
64453;BME280;50813;52.654;6.766;2023-04-09T00:39:17;102656.0;;;9.49;97.7
64453;BME280;50813;52.654;6.766;2023-04-09T00:40:53;102653.0;;;9.31;99.05
64453;BME280;50813;52.654;6.766;2023-04-09T00:42:31;102651.0;;;9.24;99.23
64453;BME280;50813;52.654;6.766;2023-04-09T00:45:43;102643.0;;;9.3;100.0
64453;BME280;50813;52.654;6.766;2023-04-09T00:47:20;102642.0;;;9.43;99.27
64453;BME280;50813;52.654;6.766;2023-04-09T00:48:56;102645.0;;;9.34;99.47
64453;BME280;50813;52.654;6.766;2023-04-09T00:52:11;102642.0;;;9.27;100.0
64453;BME280;50813;52.654;6.766;2023-04-09T00:53:47;102646.0;;;9.17;100.0
64453;BME280;50813;52.654;6.766;2023-04-09T00:55:24;102642.0;;;9.23;100.0
64453;BME280;50813;52.654;6.766;2023-04-09T00:58:36;102642.0;;;9.19;100.0
64453;BME280;50813;52.654;6.766;2023-04-09T01:00:14;102641.00000000001;;;9.26;100.0
64453;BME280;50813;52.654;6.766;2023-04-09T01:01:50;102644.0;;;9.13;100.0
64453;BME280;50813;52.654;6.766;2023-04-09T01:03:27;102642.0;;;8.89;100.0
64453;BME280;50813;52.654;6.766;2023-04-09T01:06:44;102639.00000000001;;;8.9;100.0
64453;BME280;50813;52.654;6.766;2023-04-09T01:08:31;102634.99999999999;;;8.89;100.0
64453;BME280;50813;52.654;6.766;2023-04-09T01:10:18;102634.99999999999;;;8.75;100.0
64453;BME280;50813;52.654;6.766;2023-04-09T01:12:08;102628.0;;;8.8;100.0
64453;BME280;50813;52.654;6.766;2023-04-09T01:13:56;102625.0;;;9.05;100.0
64453;BME280;50813;52.654;6.766;2023-04-09T01:17:30;102622.0;;;9.19;100.0
64453;BME280;50813;52.654;6.766;2023-04-09T01:19:24;102625.0;;;9.21;100.0
64453;BME280;50813;52.654;6.766;2023-04-09T01:21:10;102627.0;;;9.06;100.0
64453;BME280;50813;52.654;6.766;2023-04-09T01:22:56;102624.0;;;9.16;100.0
64453;BME280;50813;52.654;6.766;2023-04-09T01:24:44;102626.0;;;9.34;100.0
64453;BME280;50813;52.654;6.766;2023-04-09T01:26:44;102623.0;;;9.23;100.0
64453;BME280;50813;52.654;6.766;2023-04-09T01:28:31;102623.0;;;9.01;100.0
64453;BME280;50813;52.654;6.766;2023-04-09T01:31:53;102618.0;;;9.15;100.0
64453;BME280;50813;52.654;6.766;2023-04-09T01:33:31;102617.0;;;9.11;100.0
64453;BME280;50813;52.654;6.766;2023-04-09T01:35:08;102617.0;;;9.19;100.0
64453;BME280;50813;52.654;6.766;2023-04-09T01:38:31;102620.0;;;9.23;100.0
64453;BME280;50813;52.654;6.766;2023-04-09T01:40:10;102613.00000000001;;;9.14;100.0
64453;BME280;50813;52.654;6.766;2023-04-09T01:41:47;102608.99999999999;;;9.24;100.0
64453;BME280;50813;52.654;6.766;2023-04-09T01:43:25;102613.00000000001;;;9.18;100.0
64453;BME280;50813;52.654;6.766;2023-04-09T01:46:42;102617.0;;;9.11;100.0
64453;BME280;50813;52.654;6.766;2023-04-09T01:48:21;102609.99999999999;;;9.27;100.0
64453;BME280;50813;52.654;6.766;2023-04-09T01:49:58;102614.00000000001;;;9.08;100.0
64453;BME280;50813;52.654;6.766;2023-04-09T01:51:35;102615.00000000001;;;8.93;100.0
64453;BME280;50813;52.654;6.766;2023-04-09T01:54:48;102615.00000000001;;;8.96;100.0
64453;BME280;50813;52.654;6.766;2023-04-09T01:56:25;102616.00000000001;;;8.89;100.0
64453;BME280;50813;52.654;6.766;2023-04-09T01:58:02;102609.99999999999;;;9.21;100.0
64453;BME280;50813;52.654;6.766;2023-04-09T02:01:19;102608.99999999999;;;9.3;100.0
64453;BME280;50813;52.654;6.766;2023-04-09T02:03:04;102611.99999999999;;;9.05;100.0
64453;BME280;50813;52.654;6.766;2023-04-09T02:04:46;102604.0;;;9.09;100.0
64453;BME280;50813;52.654;6.766;2023-04-09T02:06:30;102608.0;;;9.19;100.0
64453;BME280;50813;52.654;6.766;2023-04-09T02:09:53;102604.0;;;9.09;100.0
64453;BME280;50813;52.654;6.766;2023-04-09T02:11:32;102606.0;;;9.1;100.0
64453;BME280;50813;52.654;6.766;2023-04-09T02:13:13;102605.0;;;9.11;100.0
64453;BME280;50813;52.654;6.766;2023-04-09T02:14:52;102603.0;;;9.1;100.0
64453;BME280;50813;52.654;6.766;2023-04-09T02:18:20;102614.00000000001;;;8.9;100.0
64453;BME280;50813;52.654;6.766;2023-04-09T02:19:56;102604.0;;;9.01;100.0
64453;BME280;50813;52.654;6.766;2023-04-09T02:21:33;102605.0;;;9.09;100.0
64453;BME280;50813;52.654;6.766;2023-04-09T02:23:10;102601.0;;;9.14;100.0
64453;BME280;50813;52.654;6.766;2023-04-09T02:26:23;102604.0;;;9.06;100.0
64453;BME280;50813;52.654;6.766;2023-04-09T02:29:37;102598.0;;;9.09;100.0
64453;BME280;50813;52.654;6.766;2023-04-09T02:31:14;102608.0;;;8.75;100.0
64453;BME280;50813;52.654;6.766;2023-04-09T02:34:27;102602.0;;;8.5;100.0
64453;BME280;50813;52.654;6.766;2023-04-09T02:36:04;102603.0;;;8.64;100.0
64453;BME280;50813;52.654;6.766;2023-04-09T02:37:41;102603.0;;;8.76;100.0
64453;BME280;50813;52.654;6.766;2023-04-09T02:40:53;102594.0;;;8.85;100.0
64453;BME280;50813;52.654;6.766;2023-04-09T02:42:30;102599.0;;;8.69;100.0
64453;BME280;50813;52.654;6.766;2023-04-09T02:44:06;102595.0;;;8.74;100.0
64453;BME280;50813;52.654;6.766;2023-04-09T02:47:18;102589.00000000001;;;8.89;100.0
64453;BME280;50813;52.654;6.766;2023-04-09T02:48:54;102588.00000000001;;;8.97;100.0
64453;BME280;50813;52.654;6.766;2023-04-09T02:50:31;102584.99999999999;;;9.06;100.0
64453;BME280;50813;52.654;6.766;2023-04-09T02:53:45;102579.0;;;8.94;100.0
64453;BME280;50813;52.654;6.766;2023-04-09T02:55:21;102580.0;;;8.81;100.0
64453;BME280;50813;52.654;6.766;2023-04-09T02:56:58;102580.0;;;8.93;100.0
64453;BME280;50813;52.654;6.766;2023-04-09T02:58:34;102583.0;;;8.73;100.0
64453;BME280;50813;52.654;6.766;2023-04-09T03:01:48;102576.0;;;8.9;100.0
64453;BME280;50813;52.654;6.766;2023-04-09T03:03:24;102577.0;;;9.05;100.0
64453;BME280;50813;52.654;6.766;2023-04-09T03:05:00;102575.0;;;8.9;100.0
64453;BME280;50813;52.654;6.766;2023-04-09T03:08:12;102578.0;;;8.78;100.0
64453;BME280;50813;52.654;6.766;2023-04-09T03:09:48;102581.0;;;8.97;100.0
64453;BME280;50813;52.654;6.766;2023-04-09T03:11:25;102575.0;;;8.89;100.0
64453;BME280;50813;52.654;6.766;2023-04-09T03:14:39;102577.0;;;8.73;100.0
64453;BME280;50813;52.654;6.766;2023-04-09T03:16:15;102571.0;;;9.07;100.0
64453;BME280;50813;52.654;6.766;2023-04-09T03:17:51;102570.0;;;8.97;100.0
64453;BME280;50813;52.654;6.766;2023-04-09T03:19:27;102569.0;;;9.06;100.0
64453;BME280;50813;52.654;6.766;2023-04-09T03:22:42;102567.0;;;9.09;100.0
64453;BME280;50813;52.654;6.766;2023-04-09T03:24:19;102568.0;;;9.08;100.0
64453;BME280;50813;52.654;6.766;2023-04-09T03:26:00;102567.0;;;8.83;100.0
64453;BME280;50813;52.654;6.766;2023-04-09T03:29:13;102561.99999999999;;;9.31;100.0
64453;BME280;50813;52.654;6.766;2023-04-09T03:30:49;102563.00000000001;;;9.21;100.0
64453;BME280;50813;52.654;6.766;2023-04-09T03:32:25;102558.99999999999;;;9.19;100.0
64453;BME280;50813;52.654;6.766;2023-04-09T03:34:02;102563.00000000001;;;9.09;100.0
64453;BME280;50813;52.654;6.766;2023-04-09T03:37:14;102565.00000000001;;;9.11;100.0
64453;BME280;50813;52.654;6.766;2023-04-09T03:38:50;102566.00000000001;;;9.01;100.0
64453;BME280;50813;52.654;6.766;2023-04-09T03:40:26;102567.0;;;9.14;100.0
64453;BME280;50813;52.654;6.766;2023-04-09T03:43:39;102566.00000000001;;;8.98;100.0
64453;BME280;50813;52.654;6.766;2023-04-09T03:45:15;102564.00000000001;;;9.03;100.0
64453;BME280;50813;52.654;6.766;2023-04-09T03:46:51;102565.00000000001;;;9.07;100.0
64453;BME280;50813;52.654;6.766;2023-04-09T03:50:05;102557.0;;;9.1;100.0
64453;BME280;50813;52.654;6.766;2023-04-09T03:51:41;102558.99999999999;;;9.02;100.0
64453;BME280;50813;52.654;6.766;2023-04-09T03:53:17;102559.99999999999;;;8.9;100.0
64453;BME280;50813;52.654;6.766;2023-04-09T03:54:53;102561.99999999999;;;9.01;100.0
64453;BME280;50813;52.654;6.766;2023-04-09T03:58:06;102555.0;;;9.09;100.0
64453;BME280;50813;52.654;6.766;2023-04-09T03:59:44;102564.00000000001;;;8.9;100.0
64453;BME280;50813;52.654;6.766;2023-04-09T04:01:20;102566.00000000001;;;9.08;100.0
64453;BME280;50813;52.654;6.766;2023-04-09T04:04:32;102566.00000000001;;;9.19;98.45
64453;BME280;50813;52.654;6.766;2023-04-09T04:06:08;102561.99999999999;;;9.16;98.78
64453;BME280;50813;52.654;6.766;2023-04-09T04:07:44;102558.0;;;9.15;99.15
64453;BME280;50813;52.654;6.766;2023-04-09T04:11:02;102557.0;;;9.15;98.59
64453;BME280;50813;52.654;6.766;2023-04-09T04:12:39;102564.00000000001;;;9.03;98.7
64453;BME280;50813;52.654;6.766;2023-04-09T04:14:15;102565.00000000001;;;9.06;98.15
64453;BME280;50813;52.654;6.766;2023-04-09T04:15:52;102563.00000000001;;;9.18;97.37
64453;BME280;50813;52.654;6.766;2023-04-09T04:19:05;102559.99999999999;;;9.17;95.85
64453;BME280;50813;52.654;6.766;2023-04-09T04:20:42;102567.0;;;9.09;95.49
64453;BME280;50813;52.654;6.766;2023-04-09T04:22:18;102568.0;;;9.13;95.67
64453;BME280;50813;52.654;6.766;2023-04-09T04:25:31;102559.99999999999;;;9.14;95.83
64453;BME280;50813;52.654;6.766;2023-04-09T04:27:07;102559.99999999999;;;9.1;95.51
64453;BME280;50813;52.654;6.766;2023-04-09T04:28:43;102565.00000000001;;;8.91;96.01
64453;BME280;50813;52.654;6.766;2023-04-09T04:31:56;102564.00000000001;;;9.06;94.71
64453;BME280;50813;52.654;6.766;2023-04-09T04:33:33;102558.99999999999;;;9.1;94.89
64453;BME280;50813;52.654;6.766;2023-04-09T04:35:09;102563.00000000001;;;9.11;95.08
64453;BME280;50813;52.654;6.766;2023-04-09T04:36:45;102559.99999999999;;;9.15;95.5
64453;BME280;50813;52.654;6.766;2023-04-09T04:40:00;102558.99999999999;;;9.21;94.8
64453;BME280;50813;52.654;6.766;2023-04-09T04:41:37;102565.00000000001;;;9.09;94.96
64453;BME280;50813;52.654;6.766;2023-04-09T04:43:13;102569.0;;;9.16;94.94
64453;BME280;50813;52.654;6.766;2023-04-09T04:46:26;102568.0;;;9.16;94.26
64453;BME280;50813;52.654;6.766;2023-04-09T04:48:03;102571.0;;;9.14;94.28
64453;BME280;50813;52.654;6.766;2023-04-09T04:49:39;102574.0;;;9.09;93.71
64453;BME280;50813;52.654;6.766;2023-04-09T04:52:52;102573.0;;;9.17;93.47
64453;BME280;50813;52.654;6.766;2023-04-09T04:54:28;102570.0;;;8.97;93.89
64453;BME280;50813;52.654;6.766;2023-04-09T04:56:04;102571.0;;;8.89;92.75
64453;BME280;50813;52.654;6.766;2023-04-09T04:57:40;102568.0;;;9.06;93.28
64453;BME280;50813;52.654;6.766;2023-04-09T05:00:53;102567.0;;;9.15;92.93
64453;BME280;50813;52.654;6.766;2023-04-09T05:02:29;102568.0;;;9.09;92.99
64453;BME280;50813;52.654;6.766;2023-04-09T05:04:05;102574.0;;;8.94;93.78
64453;BME280;50813;52.654;6.766;2023-04-09T05:07:17;102573.0;;;8.98;92.54
64453;BME280;50813;52.654;6.766;2023-04-09T05:08:53;102570.0;;;8.92;94.19
64453;BME280;50813;52.654;6.766;2023-04-09T05:10:29;102568.0;;;8.94;93.45
64453;BME280;50813;52.654;6.766;2023-04-09T05:13:42;102567.0;;;9.02;92.5
64453;BME280;50813;52.654;6.766;2023-04-09T05:15:19;102570.0;;;9.14;92.29
64453;BME280;50813;52.654;6.766;2023-04-09T05:16:55;102569.0;;;9.05;92.04
64453;BME280;50813;52.654;6.766;2023-04-09T05:20:08;102566.00000000001;;;9.11;91.49
64453;BME280;50813;52.654;6.766;2023-04-09T05:21:45;102569.0;;;9.09;91.77
64453;BME280;50813;52.654;6.766;2023-04-09T05:23:21;102570.0;;;8.89;93.47
64453;BME280;50813;52.654;6.766;2023-04-09T05:24:57;102574.0;;;8.76;91.58
64453;BME280;50813;52.654;6.766;2023-04-09T05:28:10;102568.0;;;8.93;92.85
64453;BME280;50813;52.654;6.766;2023-04-09T05:29:47;102569.0;;;8.93;92.34
64453;BME280;50813;52.654;6.766;2023-04-09T05:31:23;102570.0;;;8.93;92.5
64453;BME280;50813;52.654;6.766;2023-04-09T05:34:35;102570.0;;;8.92;93.06
64453;BME280;50813;52.654;6.766;2023-04-09T05:36:14;102571.0;;;8.98;92.27
64453;BME280;50813;52.654;6.766;2023-04-09T05:37:51;102567.0;;;9.02;91.8
64453;BME280;50813;52.654;6.766;2023-04-09T05:41:04;102572.0;;;9.0;92.51
64453;BME280;50813;52.654;6.766;2023-04-09T05:42:40;102572.0;;;8.99;91.32
64453;BME280;50813;52.654;6.766;2023-04-09T05:44:16;102565.00000000001;;;9.09;89.85
64453;BME280;50813;52.654;6.766;2023-04-09T05:45:52;102571.0;;;9.17;88.84
64453;BME280;50813;52.654;6.766;2023-04-09T05:49:05;102568.0;;;9.14;89.12
64453;BME280;50813;52.654;6.766;2023-04-09T05:50:48;102567.0;;;9.14;89.34
64453;BME280;50813;52.654;6.766;2023-04-09T05:52:25;102567.0;;;9.24;88.54
64453;BME280;50813;52.654;6.766;2023-04-09T05:55:38;102566.00000000001;;;9.15;89.3
64453;BME280;50813;52.654;6.766;2023-04-09T05:57:14;102569.0;;;9.14;89.06
64453;BME280;50813;52.654;6.766;2023-04-09T05:58:50;102572.0;;;9.17;89.24
64453;BME280;50813;52.654;6.766;2023-04-09T06:00:27;102571.0;;;9.27;89.9
64453;BME280;50813;52.654;6.766;2023-04-09T06:03:41;102569.0;;;9.31;90.03
64453;BME280;50813;52.654;6.766;2023-04-09T06:05:18;102568.0;;;9.33;90.37
64453;BME280;50813;52.654;6.766;2023-04-09T06:06:54;102568.0;;;9.18;91.34
64453;BME280;50813;52.654;6.766;2023-04-09T06:10:07;102566.00000000001;;;9.01;93.27
64453;BME280;50813;52.654;6.766;2023-04-09T06:11:44;102567.0;;;9.14;93.63
64453;BME280;50813;52.654;6.766;2023-04-09T06:13:21;102570.0;;;9.35;94.01
64453;BME280;50813;52.654;6.766;2023-04-09T06:16:33;102571.0;;;9.5;94.16
64453;BME280;50813;52.654;6.766;2023-04-09T06:18:10;102577.0;;;9.61;94.04
64453;BME280;50813;52.654;6.766;2023-04-09T06:19:46;102572.0;;;9.72;93.09
64453;BME280;50813;52.654;6.766;2023-04-09T06:21:22;102571.0;;;9.59;92.9
64453;BME280;50813;52.654;6.766;2023-04-09T06:24:35;102572.0;;;9.77;92.1
64453;BME280;50813;52.654;6.766;2023-04-09T06:26:12;102570.0;;;9.8;92.08
64453;BME280;50813;52.654;6.766;2023-04-09T06:27:49;102572.0;;;9.74;90.94
64453;BME280;50813;52.654;6.766;2023-04-09T06:31:01;102576.0;;;9.83;90.78
64453;BME280;50813;52.654;6.766;2023-04-09T06:32:37;102576.0;;;9.58;91.23
64453;BME280;50813;52.654;6.766;2023-04-09T06:34:13;102581.0;;;9.48;90.73
64453;BME280;50813;52.654;6.766;2023-04-09T06:37:26;102582.0;;;9.64;90.52
64453;BME280;50813;52.654;6.766;2023-04-09T06:39:02;102584.99999999999;;;9.48;90.48
64453;BME280;50813;52.654;6.766;2023-04-09T06:40:38;102583.99999999999;;;9.59;90.79
64453;BME280;50813;52.654;6.766;2023-04-09T06:43:51;102578.0;;;9.57;90.25
64453;BME280;50813;52.654;6.766;2023-04-09T06:45:28;102583.0;;;9.3;91.08
64453;BME280;50813;52.654;6.766;2023-04-09T06:47:04;102589.00000000001;;;9.65;91.07
64453;BME280;50813;52.654;6.766;2023-04-09T06:48:40;102584.99999999999;;;9.46;90.25
64453;BME280;50813;52.654;6.766;2023-04-09T06:51:54;102588.00000000001;;;9.78;90.16
64453;BME280;50813;52.654;6.766;2023-04-09T06:53:30;102590.00000000001;;;9.89;89.63
64453;BME280;50813;52.654;6.766;2023-04-09T06:55:07;102591.00000000001;;;9.94;88.77
64453;BME280;50813;52.654;6.766;2023-04-09T06:58:19;102591.00000000001;;;9.94;88.05
64453;BME280;50813;52.654;6.766;2023-04-09T06:59:55;102589.00000000001;;;10.09;87.52
64453;BME280;50813;52.654;6.766;2023-04-09T07:01:32;102597.0;;;10.24;87.95
64453;BME280;50813;52.654;6.766;2023-04-09T07:04:45;102591.00000000001;;;10.34;87.14
64453;BME280;50813;52.654;6.766;2023-04-09T07:06:21;102592.0;;;10.54;86.78
64453;BME280;50813;52.654;6.766;2023-04-09T07:07:57;102589.00000000001;;;10.49;85.8
64453;BME280;50813;52.654;6.766;2023-04-09T07:09:33;102591.00000000001;;;10.61;84.13
64453;BME280;50813;52.654;6.766;2023-04-09T07:12:45;102590.00000000001;;;10.46;84.22
64453;BME280;50813;52.654;6.766;2023-04-09T07:14:21;102594.0;;;10.31;84.5
64453;BME280;50813;52.654;6.766;2023-04-09T07:15:58;102594.0;;;10.28;85.54
64453;BME280;50813;52.654;6.766;2023-04-09T07:19:11;102599.0;;;10.36;85.94
64453;BME280;50813;52.654;6.766;2023-04-09T07:20:47;102604.0;;;10.48;85.71
64453;BME280;50813;52.654;6.766;2023-04-09T07:22:25;102597.0;;;10.53;84.85
64453;BME280;50813;52.654;6.766;2023-04-09T07:25:39;102596.0;;;10.34;85.37
64453;BME280;50813;52.654;6.766;2023-04-09T07:27:15;102598.0;;;10.51;85.05
64453;BME280;50813;52.654;6.766;2023-04-09T07:28:52;102600.0;;;10.53;84.89
64453;BME280;50813;52.654;6.766;2023-04-09T07:30:28;102605.0;;;10.56;84.58
64453;BME280;50813;52.654;6.766;2023-04-09T07:33:41;102603.0;;;10.58;84.3
64453;BME280;50813;52.654;6.766;2023-04-09T07:35:18;102609.99999999999;;;10.76;85.53
64453;BME280;50813;52.654;6.766;2023-04-09T07:36:54;102608.0;;;10.77;84.66
64453;BME280;50813;52.654;6.766;2023-04-09T07:40:07;102609.99999999999;;;10.79;84.09
64453;BME280;50813;52.654;6.766;2023-04-09T07:41:44;102607.0;;;10.95;83.37
64453;BME280;50813;52.654;6.766;2023-04-09T07:43:20;102607.0;;;10.87;83.32
64453;BME280;50813;52.654;6.766;2023-04-09T07:46:32;102604.0;;;11.02;83.27
64453;BME280;50813;52.654;6.766;2023-04-09T07:48:08;102599.0;;;11.16;83.02
64453;BME280;50813;52.654;6.766;2023-04-09T07:49:44;102601.0;;;11.26;81.84
64453;BME280;50813;52.654;6.766;2023-04-09T07:51:21;102602.0;;;11.48;81.33
64453;BME280;50813;52.654;6.766;2023-04-09T07:54:33;102601.0;;;11.74;82.55
64453;BME280;50813;52.654;6.766;2023-04-09T07:56:10;102602.0;;;11.67;81.27
64453;BME280;50813;52.654;6.766;2023-04-09T07:57:46;102601.0;;;11.86;80.19
64453;BME280;50813;52.654;6.766;2023-04-09T08:00:59;102603.0;;;11.62;79.55
64453;BME280;50813;52.654;6.766;2023-04-09T08:02:35;102603.0;;;11.49;78.34
64453;BME280;50813;52.654;6.766;2023-04-09T08:04:11;102603.0;;;11.42;79.95
64453;BME280;50813;52.654;6.766;2023-04-09T08:07:23;102600.0;;;11.77;78.77
64453;BME280;50813;52.654;6.766;2023-04-09T08:09:00;102601.0;;;12.01;80.53
64453;BME280;50813;52.654;6.766;2023-04-09T08:10:37;102603.0;;;11.98;79.13
64453;BME280;50813;52.654;6.766;2023-04-09T08:12:14;102602.0;;;12.02;78.75
64453;BME280;50813;52.654;6.766;2023-04-09T08:15:26;102602.0;;;12.14;78.88
64453;BME280;50813;52.654;6.766;2023-04-09T08:17:03;102603.0;;;12.39;78.94
64453;BME280;50813;52.654;6.766;2023-04-09T08:18:39;102603.0;;;12.43;77.61
64453;BME280;50813;52.654;6.766;2023-04-09T08:21:52;102608.0;;;12.46;78.19
64453;BME280;50813;52.654;6.766;2023-04-09T08:23:28;102606.0;;;12.33;77.41
64453;BME280;50813;52.654;6.766;2023-04-09T08:25:05;102606.0;;;12.51;77.28
64453;BME280;50813;52.654;6.766;2023-04-09T08:28:18;102604.0;;;12.04;74.8
64453;BME280;50813;52.654;6.766;2023-04-09T08:29:54;102601.0;;;12.02;76.06
64453;BME280;50813;52.654;6.766;2023-04-09T08:31:30;102598.0;;;12.12;76.2
64453;BME280;50813;52.654;6.766;2023-04-09T08:33:08;102596.0;;;12.26;76.45
64453;BME280;50813;52.654;6.766;2023-04-09T08:36:20;102596.0;;;12.31;77.02
64453;BME280;50813;52.654;6.766;2023-04-09T08:37:57;102599.0;;;12.61;76.67
64453;BME280;50813;52.654;6.766;2023-04-09T08:39:34;102593.0;;;12.7;75.42
64453;BME280;50813;52.654;6.766;2023-04-09T08:42:55;102594.0;;;12.86;76.08
64453;BME280;50813;52.654;6.766;2023-04-09T08:44:31;102596.0;;;12.67;74.36
64453;BME280;50813;52.654;6.766;2023-04-09T08:46:09;102594.0;;;12.85;74.91
64453;BME280;50813;52.654;6.766;2023-04-09T08:49:24;102601.0;;;12.57;75.03
64453;BME280;50813;52.654;6.766;2023-04-09T08:51:00;102597.0;;;12.88;75.27
64453;BME280;50813;52.654;6.766;2023-04-09T08:52:37;102599.0;;;13.04;73.38
64453;BME280;50813;52.654;6.766;2023-04-09T08:54:15;102595.0;;;13.15;72.53
64453;BME280;50813;52.654;6.766;2023-04-09T08:57:28;102596.0;;;13.19;74.06
64453;BME280;50813;52.654;6.766;2023-04-09T08:59:04;102593.0;;;13.19;73.72
64453;BME280;50813;52.654;6.766;2023-04-09T09:00:40;102589.00000000001;;;13.37;73.59
64453;BME280;50813;52.654;6.766;2023-04-09T09:03:55;102586.99999999999;;;13.72;73.69
64453;BME280;50813;52.654;6.766;2023-04-09T09:05:37;102583.0;;;13.65;72.66
64453;BME280;50813;52.654;6.766;2023-04-09T09:07:14;102586.99999999999;;;13.51;71.61
64453;BME280;50813;52.654;6.766;2023-04-09T09:09:03;102588.00000000001;;;13.64;72.55
64453;BME280;50813;52.654;6.766;2023-04-09T09:12:37;102583.0;;;13.56;72.88
64453;BME280;50813;52.654;6.766;2023-04-09T09:14:15;102582.0;;;13.75;71.67
64453;BME280;50813;52.654;6.766;2023-04-09T09:15:54;102581.0;;;13.52;70.42
64453;BME280;50813;52.654;6.766;2023-04-09T09:17:52;102588.00000000001;;;13.73;71.97
64453;BME280;50813;52.654;6.766;2023-04-09T09:19:31;102589.00000000001;;;13.67;71.27
64453;BME280;50813;52.654;6.766;2023-04-09T09:22:48;102583.99999999999;;;13.7;72.67
64453;BME280;50813;52.654;6.766;2023-04-09T09:24:25;102583.0;;;14.0;70.59
64453;BME280;50813;52.654;6.766;2023-04-09T09:26:10;102579.0;;;13.66;69.3
64453;BME280;50813;52.654;6.766;2023-04-09T09:27:47;102577.0;;;13.69;70.59
64453;BME280;50813;52.654;6.766;2023-04-09T09:31:06;102572.0;;;13.93;70.55
64453;BME280;50813;52.654;6.766;2023-04-09T09:32:44;102571.0;;;14.06;68.56
64453;BME280;50813;52.654;6.766;2023-04-09T09:34:21;102573.0;;;14.2;69.99
64453;BME280;50813;52.654;6.766;2023-04-09T09:35:59;102569.0;;;14.18;67.91
64453;BME280;50813;52.654;6.766;2023-04-09T09:39:15;102568.0;;;14.29;67.66
64453;BME280;50813;52.654;6.766;2023-04-09T09:40:52;102567.0;;;13.75;65.86
64453;BME280;50813;52.654;6.766;2023-04-09T09:42:28;102559.99999999999;;;13.42;67.73
64453;BME280;50813;52.654;6.766;2023-04-09T09:45:43;102563.00000000001;;;13.94;68.98
64453;BME280;50813;52.654;6.766;2023-04-09T09:47:22;102561.99999999999;;;14.11;69.17
64453;BME280;50813;52.654;6.766;2023-04-09T09:48:59;102558.0;;;14.11;66.63
64453;BME280;50813;52.654;6.766;2023-04-09T09:50:36;102558.0;;;14.35;67.27
64453;BME280;50813;52.654;6.766;2023-04-09T09:53:54;102556.0;;;14.6;64.67
64453;BME280;50813;52.654;6.766;2023-04-09T09:55:31;102557.0;;;14.44;64.91
64453;BME280;50813;52.654;6.766;2023-04-09T09:57:10;102555.0;;;14.52;64.17
64453;BME280;50813;52.654;6.766;2023-04-09T10:00:31;102558.99999999999;;;14.41;64.63
64453;BME280;50813;52.654;6.766;2023-04-09T10:02:17;102556.0;;;14.17;64.48
64453;BME280;50813;52.654;6.766;2023-04-09T10:03:55;102555.0;;;14.32;64.69
64453;BME280;50813;52.654;6.766;2023-04-09T10:05:33;102552.0;;;14.77;65.61
64453;BME280;50813;52.654;6.766;2023-04-09T10:08:49;102553.0;;;14.9;62.66
64453;BME280;50813;52.654;6.766;2023-04-09T10:10:26;102547.0;;;15.14;61.45
64453;BME280;50813;52.654;6.766;2023-04-09T10:12:06;102550.0;;;14.99;63.36
64453;BME280;50813;52.654;6.766;2023-04-09T10:13:49;102545.0;;;15.11;60.18
64453;BME280;50813;52.654;6.766;2023-04-09T10:17:04;102543.0;;;15.2;59.79
64453;BME280;50813;52.654;6.766;2023-04-09T10:18:41;102546.0;;;15.5;60.7
64453;BME280;50813;52.654;6.766;2023-04-09T10:20:23;102542.0;;;15.46;61.7
64453;BME280;50813;52.654;6.766;2023-04-09T10:22:04;102546.0;;;15.65;61.13
64453;BME280;50813;52.654;6.766;2023-04-09T10:25:23;102543.0;;;15.93;58.9
64453;BME280;50813;52.654;6.766;2023-04-09T10:27:08;102542.0;;;15.7;56.96
64453;BME280;50813;52.654;6.766;2023-04-09T10:28:45;102538.00000000001;;;15.81;59.13
64453;BME280;50813;52.654;6.766;2023-04-09T10:30:30;102533.99999999999;;;15.56;55.92
64453;BME280;50813;52.654;6.766;2023-04-09T10:33:45;102531.0;;;15.72;61.34
64453;BME280;50813;52.654;6.766;2023-04-09T10:35:24;102526.0;;;15.85;58.78
64453;BME280;50813;52.654;6.766;2023-04-09T10:37:00;102526.0;;;15.83;57.03
64453;BME280;50813;52.654;6.766;2023-04-09T10:40:17;102527.0;;;15.87;53.82
64453;BME280;50813;52.654;6.766;2023-04-09T10:41:55;102524.0;;;15.83;53.18
64453;BME280;50813;52.654;6.766;2023-04-09T10:43:33;102521.0;;;15.81;53.81
64453;BME280;50813;52.654;6.766;2023-04-09T10:45:13;102522.0;;;16.11;53.12
64453;BME280;50813;52.654;6.766;2023-04-09T10:48:31;102516.00000000001;;;16.55;53.46